createdAt,value
2019-03-24T00:02:12.543Z,8.50
2019-03-24T00:04:42.687Z,8.50
2019-03-24T00:07:12.600Z,8.50
2019-03-24T00:09:42.480Z,8.40
2019-03-24T00:12:12.533Z,8.30
2019-03-24T00:14:42.407Z,8.40
2019-03-24T00:17:12.221Z,8.30
2019-03-24T00:19:42.806Z,8.30
2019-03-24T00:22:12.646Z,8.30
2019-03-24T00:24:42.476Z,8.30
2019-03-24T00:27:12.378Z,8.30
2019-03-24T00:29:43.180Z,8.20
2019-03-24T00:32:13.970Z,8.20
2019-03-24T00:34:43.732Z,8.20
2019-03-24T00:37:13.582Z,8.10
2019-03-24T00:39:43.371Z,8.10
2019-03-24T00:42:13.219Z,8.10
2019-03-24T00:44:43.071Z,8.10
2019-03-24T00:47:13.070Z,8.10
2019-03-24T00:49:42.918Z,8.00
2019-03-24T00:52:12.759Z,8.00
2019-03-24T00:54:42.540Z,7.90
2019-03-24T00:57:12.385Z,7.90
2019-03-24T00:59:42.436Z,7.90
2019-03-24T01:02:12.328Z,7.90
2019-03-24T01:04:48.765Z,7.90
2019-03-24T01:07:18.607Z,7.90
2019-03-24T01:09:48.499Z,7.80
2019-03-24T01:12:18.436Z,7.80
2019-03-24T01:14:48.348Z,7.70
2019-03-24T01:17:18.430Z,7.70
2019-03-24T01:19:48.524Z,7.70
2019-03-24T01:22:18.421Z,7.60
2019-03-24T01:24:48.277Z,7.60
2019-03-24T01:27:18.113Z,7.60
2019-03-24T01:29:48.430Z,7.50
2019-03-24T01:32:18.238Z,7.60
2019-03-24T01:34:48.072Z,7.60
2019-03-24T01:37:17.887Z,7.60
2019-03-24T01:39:48.004Z,7.60
2019-03-24T01:42:17.817Z,7.50
2019-03-24T01:44:47.708Z,7.50
2019-03-24T01:47:17.541Z,7.40
2019-03-24T01:49:47.445Z,7.40
2019-03-24T01:52:19.291Z,7.40
2019-03-24T01:54:49.115Z,7.30
2019-03-24T01:57:18.882Z,7.30
2019-03-24T01:59:48.736Z,7.30
2019-03-24T02:02:18.534Z,7.30
2019-03-24T02:04:48.378Z,7.30
2019-03-24T02:07:18.683Z,7.20
2019-03-24T02:09:48.764Z,7.30
2019-03-24T02:12:18.573Z,7.20
2019-03-24T02:14:48.670Z,7.20
2019-03-24T02:17:18.800Z,7.10
2019-03-24T02:19:48.892Z,7.10
2019-03-24T02:22:18.768Z,7.10
2019-03-24T02:24:48.607Z,7.10
2019-03-24T02:27:18.482Z,7.10
2019-03-24T02:29:48.598Z,7.00
2019-03-24T02:32:18.440Z,7.00
2019-03-24T02:34:48.255Z,7.00
2019-03-24T02:37:18.061Z,7.00
2019-03-24T02:39:48.428Z,7.00
2019-03-24T02:42:20.218Z,7.00
2019-03-24T02:44:50.651Z,6.90
2019-03-24T02:47:20.728Z,6.90
2019-03-24T02:49:50.607Z,6.90
2019-03-24T02:52:20.381Z,6.90
2019-03-24T02:54:50.244Z,6.90
2019-03-24T02:57:20.101Z,7.00
2019-03-24T02:59:50.316Z,7.00
2019-03-24T03:02:20.215Z,6.90
2019-03-24T03:04:50.081Z,6.90
2019-03-24T03:07:20.944Z,6.90
2019-03-24T03:09:50.787Z,6.90
2019-03-24T03:12:20.906Z,6.90
2019-03-24T03:14:50.829Z,6.90
2019-03-24T03:17:20.758Z,6.90
2019-03-24T03:19:53.553Z,6.90
2019-03-24T03:22:20.630Z,6.80
2019-03-24T03:24:50.466Z,6.70
2019-03-24T03:27:20.753Z,6.70
2019-03-24T03:29:51.034Z,6.60
2019-03-24T03:32:21.127Z,6.60
2019-03-24T03:34:51.045Z,6.50
2019-03-24T03:37:21.069Z,6.50
2019-03-24T03:39:57.479Z,6.50
2019-03-24T03:42:22.113Z,6.50
2019-03-24T03:44:52.444Z,6.50
2019-03-24T03:47:22.229Z,6.50
2019-03-24T03:49:52.123Z,6.50
2019-03-24T03:52:24.245Z,6.40
2019-03-24T03:54:54.097Z,6.40
2019-03-24T03:57:24.941Z,6.40
2019-03-24T03:59:56.014Z,6.30
2019-03-24T04:02:25.899Z,6.30
2019-03-24T04:04:56.042Z,6.30
2019-03-24T04:07:26.440Z,6.30
2019-03-24T04:09:56.497Z,6.20
2019-03-24T04:12:26.412Z,6.20
2019-03-24T04:14:56.542Z,6.10
2019-03-24T04:17:28.469Z,6.00
2019-03-24T04:19:58.496Z,6.00
2019-03-24T04:22:28.360Z,5.90
2019-03-24T04:24:58.170Z,5.80
2019-03-24T04:27:27.986Z,5.80
2019-03-24T04:29:58.049Z,5.70
2019-03-24T04:32:27.924Z,5.40
2019-03-24T04:34:57.733Z,5.00
2019-03-24T04:37:27.562Z,4.90
2019-03-24T04:39:57.604Z,4.70
2019-03-24T04:42:27.497Z,4.70
2019-03-24T04:44:57.797Z,4.60
2019-03-24T04:47:27.645Z,4.50
2019-03-24T04:49:57.859Z,4.60
2019-03-24T04:52:27.665Z,4.50
2019-03-24T04:54:58.999Z,4.70
2019-03-24T04:57:28.823Z,4.80
2019-03-24T04:59:59.126Z,4.60
2019-03-24T05:02:28.960Z,4.70
2019-03-24T05:05:00.016Z,4.80
2019-03-24T05:07:35.432Z,4.70
2019-03-24T05:10:05.601Z,4.80
2019-03-24T05:12:35.731Z,4.80
2019-03-24T05:15:05.940Z,4.80
2019-03-24T05:17:35.803Z,4.80
2019-03-24T05:20:06.256Z,4.60
2019-03-24T05:22:40.187Z,4.60
2019-03-24T05:25:10.630Z,4.60
2019-03-24T05:27:40.642Z,4.60
2019-03-24T05:30:10.489Z,4.60
2019-03-24T05:32:40.420Z,4.60
2019-03-24T05:35:10.501Z,4.60
2019-03-24T05:37:40.446Z,4.70
2019-03-24T05:40:12.385Z,4.70
2019-03-24T05:42:44.430Z,4.70
2019-03-24T05:45:14.263Z,4.70
2019-03-24T05:47:44.086Z,4.70
2019-03-24T05:50:14.155Z,4.80
2019-03-24T05:52:43.997Z,4.80
2019-03-24T05:55:14.101Z,4.80
2019-03-24T05:57:45.968Z,4.80
2019-03-24T06:00:15.719Z,4.80
2019-03-24T06:02:45.827Z,4.80
2019-03-24T06:05:15.639Z,4.80
2019-03-24T06:07:45.420Z,5.00
2019-03-24T06:10:15.313Z,5.00
2019-03-24T06:12:46.185Z,5.10
2019-03-24T06:15:14.957Z,5.20
2019-03-24T06:17:47.974Z,5.30
2019-03-24T06:20:15.164Z,5.40
2019-03-24T06:22:45.017Z,5.40
2019-03-24T06:25:14.858Z,5.60
2019-03-24T06:27:45.960Z,5.80
2019-03-24T06:30:15.820Z,6.00
2019-03-24T06:32:45.686Z,6.10
2019-03-24T06:35:16.482Z,6.30
2019-03-24T06:37:46.260Z,6.40
2019-03-24T06:40:16.369Z,6.50
2019-03-24T06:42:48.247Z,6.70
2019-03-24T06:45:27.753Z,6.90
2019-03-24T06:47:57.619Z,7.10
2019-03-24T06:50:18.729Z,7.30
2019-03-24T06:52:48.635Z,7.50
2019-03-24T06:55:18.766Z,7.70
2019-03-24T06:57:48.721Z,7.90
2019-03-24T07:00:18.502Z,8.20
2019-03-24T07:02:48.389Z,8.30
2019-03-24T07:05:18.536Z,8.60
2019-03-24T07:07:48.403Z,8.80
2019-03-24T07:10:18.277Z,8.90
2019-03-24T07:12:48.135Z,9.20
2019-03-24T07:15:18.230Z,9.50
2019-03-24T07:17:48.081Z,9.90
2019-03-24T07:20:17.894Z,10.20
2019-03-24T07:22:47.682Z,10.50
2019-03-24T07:25:17.757Z,10.60
2019-03-24T07:27:47.607Z,10.70
2019-03-24T07:30:18.741Z,10.90
2019-03-24T07:32:48.989Z,10.90
2019-03-24T07:35:18.863Z,11.30
2019-03-24T07:37:48.727Z,11.50
2019-03-24T07:40:18.573Z,11.60
2019-03-24T07:42:48.704Z,12.00
2019-03-24T07:45:18.623Z,12.30
2019-03-24T07:47:49.102Z,12.40
2019-03-24T07:50:18.675Z,11.90
2019-03-24T07:52:48.592Z,12.30
2019-03-24T07:55:20.466Z,12.70
2019-03-24T07:57:50.303Z,12.70
2019-03-24T08:00:31.803Z,12.70
2019-03-24T08:03:02.016Z,12.50
2019-03-24T08:05:33.914Z,11.90
2019-03-24T08:08:03.850Z,11.90
2019-03-24T08:10:33.677Z,12.30
2019-03-24T08:13:03.524Z,12.70
2019-03-24T08:15:33.434Z,12.40
2019-03-24T08:18:05.377Z,12.30
2019-03-24T08:20:35.197Z,11.90
2019-03-24T08:23:08.720Z,12.10
2019-03-24T08:25:38.563Z,12.50
2019-03-24T08:28:09.693Z,13.20
2019-03-24T08:30:38.500Z,13.50
2019-03-24T08:33:08.239Z,14.30
2019-03-24T08:35:40.089Z,14.90
2019-03-24T08:38:10.153Z,14.90
2019-03-24T08:40:40.266Z,15.30
2019-03-24T08:43:10.761Z,15.80
2019-03-24T08:45:40.818Z,16.10
2019-03-24T08:48:12.982Z,16.40
2019-03-24T08:50:43.356Z,16.10
2019-03-24T08:53:13.251Z,15.60
2019-03-24T08:55:43.332Z,15.00
2019-03-24T08:58:13.204Z,15.50
2019-03-24T09:00:45.049Z,16.50
2019-03-24T09:03:14.938Z,17.00
2019-03-24T09:05:44.857Z,17.30
2019-03-24T09:08:14.872Z,17.00
2019-03-24T09:10:44.975Z,16.90
2019-03-24T09:13:16.787Z,17.20
2019-03-24T09:15:46.597Z,17.60
2019-03-24T09:18:16.696Z,17.70
2019-03-24T09:20:47.544Z,16.70
2019-03-24T09:23:20.654Z,16.30
2019-03-24T09:25:50.466Z,17.30
2019-03-24T09:28:20.621Z,17.60
2019-03-24T09:30:51.515Z,17.80
2019-03-24T09:33:21.373Z,18.00
2019-03-24T09:35:51.251Z,18.40
2019-03-24T09:38:21.074Z,17.70
2019-03-24T09:40:50.943Z,18.40
2019-03-24T09:43:20.789Z,18.70
2019-03-24T09:45:50.581Z,18.80
2019-03-24T09:48:20.425Z,19.10
2019-03-24T09:50:50.655Z,19.40
2019-03-24T09:53:20.548Z,19.60
2019-03-24T09:55:50.343Z,19.70
2019-03-24T09:58:20.232Z,18.70
2019-03-24T10:00:50.070Z,18.80
2019-03-24T10:03:19.901Z,18.40
2019-03-24T10:05:49.713Z,17.80
2019-03-24T10:08:19.549Z,17.10
2019-03-24T10:10:50.425Z,17.00
2019-03-24T10:13:19.045Z,16.50
2019-03-24T10:15:49.143Z,16.70
2019-03-24T10:18:19.220Z,17.00
2019-03-24T10:20:49.108Z,16.60
2019-03-24T10:23:18.924Z,16.80
2019-03-24T10:25:48.784Z,17.10
2019-03-24T10:28:18.738Z,18.20
2019-03-24T10:30:48.612Z,19.10
2019-03-24T10:33:18.479Z,18.50
2019-03-24T10:35:49.538Z,18.40
2019-03-24T10:38:19.285Z,18.60
2019-03-24T10:40:49.104Z,18.60
2019-03-24T10:43:18.909Z,18.10
2019-03-24T10:45:48.773Z,18.30
2019-03-24T10:48:18.663Z,19.30
2019-03-24T10:50:50.497Z,19.40
2019-03-24T10:53:21.329Z,19.20
2019-03-24T10:55:51.262Z,18.40
2019-03-24T10:58:22.588Z,18.20
2019-03-24T11:00:51.027Z,17.60
2019-03-24T11:03:21.248Z,17.40
2019-03-24T11:05:51.138Z,18.40
2019-03-24T11:08:20.910Z,18.90
2019-03-24T11:10:52.959Z,19.40
2019-03-24T11:13:22.885Z,19.30
2019-03-24T11:15:52.653Z,18.40
2019-03-24T11:18:22.532Z,18.40
2019-03-24T11:20:52.367Z,18.50
2019-03-24T11:23:23.183Z,18.60
2019-03-24T11:25:52.161Z,18.70
2019-03-24T11:28:21.892Z,19.30
2019-03-24T11:30:51.725Z,18.60
2019-03-24T11:33:21.607Z,18.30
2019-03-24T11:35:51.443Z,18.20
2019-03-24T11:38:21.231Z,18.40
2019-03-24T11:40:51.041Z,18.50
2019-03-24T11:43:21.229Z,19.00
2019-03-24T11:45:51.082Z,19.30
2019-03-24T11:48:20.920Z,19.30
2019-03-24T11:50:50.697Z,18.70
2019-03-24T11:53:20.546Z,18.90
2019-03-24T11:55:50.343Z,18.90
2019-03-24T11:58:20.128Z,19.20
2019-03-24T12:00:49.982Z,19.90
2019-03-24T12:03:20.790Z,19.50
2019-03-24T12:05:50.872Z,19.80
2019-03-24T12:08:20.755Z,19.70
2019-03-24T12:10:52.608Z,19.00
2019-03-24T12:13:22.420Z,19.60
2019-03-24T12:15:53.514Z,19.50
2019-03-24T12:18:23.317Z,19.60
2019-03-24T12:20:53.184Z,19.70
2019-03-24T12:23:23.977Z,19.90
2019-03-24T12:25:54.844Z,19.50
2019-03-24T12:28:24.657Z,19.00
2019-03-24T12:30:54.452Z,18.90
2019-03-24T12:33:25.359Z,19.50
2019-03-24T12:36:14.048Z,20.00
2019-03-24T12:38:45.159Z,20.20
2019-03-24T12:41:15.085Z,20.10
2019-03-24T12:43:45.398Z,19.90
2019-03-24T12:46:15.217Z,19.50
2019-03-24T12:48:45.170Z,19.60
2019-03-24T12:51:15.152Z,19.50
2019-03-24T12:53:45.203Z,19.40
2019-03-24T12:56:15.545Z,19.00
2019-03-24T12:58:45.568Z,18.50
2019-03-24T13:01:17.562Z,18.30
2019-03-24T13:03:47.345Z,18.40
2019-03-24T13:06:17.334Z,18.20
2019-03-24T13:08:48.238Z,17.90
2019-03-24T13:11:24.146Z,17.80
2019-03-24T13:13:54.056Z,18.10
2019-03-24T13:16:23.925Z,18.70
2019-03-24T13:18:53.781Z,18.40
2019-03-24T13:21:23.664Z,18.30
2019-03-24T13:23:53.765Z,18.40
2019-03-24T13:26:23.597Z,18.30
2019-03-24T13:28:53.495Z,18.50
2019-03-24T13:31:23.646Z,18.70
2019-03-24T13:33:53.813Z,18.80
2019-03-24T13:36:23.921Z,18.40
2019-03-24T13:38:54.025Z,18.30
2019-03-24T13:41:24.918Z,18.30
2019-03-24T13:43:55.779Z,18.40
2019-03-24T13:46:25.998Z,18.00
2019-03-24T13:48:55.812Z,18.20
2019-03-24T13:51:25.604Z,18.50
2019-03-24T13:53:55.692Z,18.00
2019-03-24T13:56:26.537Z,17.60
2019-03-24T13:58:56.649Z,17.80
2019-03-24T14:01:27.574Z,17.70
2019-03-24T14:03:57.358Z,17.70
2019-03-24T14:06:27.583Z,17.70
2019-03-24T14:08:57.390Z,17.40
2019-03-24T14:11:33.327Z,16.90
2019-03-24T14:14:03.202Z,16.60
2019-03-24T14:16:34.369Z,16.50
2019-03-24T14:19:04.514Z,16.50
2019-03-24T14:21:34.484Z,16.70
2019-03-24T14:24:04.269Z,16.60
2019-03-24T14:26:36.112Z,16.00
2019-03-24T14:29:05.965Z,16.10
2019-03-24T14:31:35.804Z,16.00
2019-03-24T14:34:07.733Z,15.60
2019-03-24T14:36:39.870Z,15.70
2019-03-24T14:39:11.749Z,15.70
2019-03-24T14:41:41.591Z,15.70
2019-03-24T14:44:12.305Z,15.40
2019-03-24T14:46:57.291Z,15.30
2019-03-24T14:49:28.560Z,15.10
2019-03-24T14:51:58.363Z,15.00
2019-03-24T14:54:28.237Z,15.10
2019-03-24T14:57:05.889Z,15.10
2019-03-24T15:00:02.606Z,15.00
2019-03-24T15:02:49.412Z,14.90
2019-03-24T15:05:23.262Z,14.90
2019-03-24T15:07:53.175Z,14.90
2019-03-24T15:10:24.063Z,14.90
2019-03-24T15:12:56.957Z,14.80
2019-03-24T15:15:26.874Z,14.60
2019-03-24T15:17:56.729Z,14.50
2019-03-24T15:20:28.516Z,14.30
2019-03-24T15:22:59.418Z,14.20
2019-03-24T15:25:29.229Z,14.00
2019-03-24T15:27:59.132Z,14.10
2019-03-24T15:30:31.046Z,14.00
2019-03-24T15:33:00.960Z,13.90
2019-03-24T15:35:32.101Z,13.70
2019-03-24T15:38:08.441Z,13.70
2019-03-24T15:40:32.938Z,13.90
2019-03-24T15:43:02.751Z,13.90
2019-03-24T15:45:32.640Z,13.80
2019-03-24T15:48:08.344Z,13.80
2019-03-24T15:50:38.694Z,13.80
2019-03-24T15:53:09.784Z,13.80
2019-03-24T15:55:40.594Z,13.90
2019-03-24T15:58:10.263Z,13.80
2019-03-24T16:00:48.029Z,13.70
2019-03-24T16:03:19.181Z,13.60
2019-03-24T16:05:47.820Z,13.60
2019-03-24T16:08:18.596Z,13.30
2019-03-24T16:10:48.415Z,13.40
2019-03-24T16:13:18.526Z,13.60
2019-03-24T16:15:53.362Z,13.40
2019-03-24T16:18:25.169Z,13.30
2019-03-24T16:20:58.331Z,13.40
2019-03-24T16:23:29.185Z,13.40
2019-03-24T16:25:57.889Z,13.20
2019-03-24T16:28:31.711Z,13.10
2019-03-24T16:31:03.546Z,13.10
2019-03-24T16:33:33.742Z,13.00
2019-03-24T16:36:03.476Z,12.90
2019-03-24T16:38:34.280Z,12.90
2019-03-24T16:41:05.148Z,12.90
2019-03-24T16:43:33.760Z,12.70
2019-03-24T16:46:03.476Z,12.70
2019-03-24T16:48:36.960Z,12.60
2019-03-24T16:51:03.179Z,12.60
2019-03-24T16:53:34.026Z,12.60
2019-03-24T16:56:05.270Z,12.60
2019-03-24T16:58:35.104Z,12.50
2019-03-24T17:01:04.990Z,12.50
2019-03-24T17:03:34.887Z,12.50
2019-03-24T17:06:05.133Z,12.40
2019-03-24T17:08:35.038Z,12.40
2019-03-24T17:11:04.949Z,12.20
2019-03-24T17:13:36.806Z,12.20
2019-03-24T17:16:07.886Z,12.10
2019-03-24T17:18:37.723Z,12.00
2019-03-24T17:21:08.191Z,12.00
2019-03-24T17:23:39.012Z,11.80
2019-03-24T17:26:09.186Z,11.80
2019-03-24T17:28:38.951Z,11.70
2019-03-24T17:31:08.754Z,11.70
2019-03-24T17:33:38.567Z,11.60
2019-03-24T17:36:08.696Z,11.60
2019-03-24T17:38:43.426Z,11.40
2019-03-24T17:41:13.327Z,11.40
2019-03-24T17:43:44.187Z,11.40
2019-03-24T17:46:14.066Z,11.40
2019-03-24T17:48:44.096Z,11.50
2019-03-24T17:51:13.956Z,11.40
2019-03-24T17:53:43.817Z,11.50
2019-03-24T17:56:14.091Z,11.50
2019-03-24T17:58:43.954Z,11.40
2019-03-24T18:01:13.926Z,11.40
2019-03-24T18:03:45.148Z,11.50
2019-03-24T18:06:13.754Z,11.50
2019-03-24T18:08:43.520Z,11.50
2019-03-24T18:11:13.407Z,11.40
2019-03-24T18:13:43.237Z,11.40
2019-03-24T18:16:13.092Z,11.40
2019-03-24T18:18:42.961Z,11.50
2019-03-24T18:21:12.754Z,11.50
2019-03-24T18:23:42.600Z,11.60
2019-03-24T18:26:13.763Z,11.60
2019-03-24T18:28:43.883Z,11.60
2019-03-24T18:31:13.733Z,11.60
2019-03-24T18:33:43.584Z,11.50
2019-03-24T18:36:13.488Z,11.50
2019-03-24T18:38:43.554Z,11.50
2019-03-24T18:41:13.387Z,11.40
2019-03-24T18:43:43.267Z,11.40
2019-03-24T18:46:13.123Z,11.40
2019-03-24T18:48:43.273Z,11.40
2019-03-24T18:51:13.152Z,11.40
2019-03-24T18:53:42.977Z,11.30
2019-03-24T18:56:13.825Z,11.40
2019-03-24T18:58:43.695Z,11.40
2019-03-24T19:01:13.462Z,11.40
2019-03-24T19:03:43.361Z,11.30
2019-03-24T19:06:13.212Z,11.30
2019-03-24T19:08:43.073Z,11.30
2019-03-24T19:11:13.244Z,11.20
2019-03-24T19:13:43.095Z,11.20
2019-03-24T19:16:13.004Z,11.10
2019-03-24T19:18:43.068Z,11.00
2019-03-24T19:21:12.902Z,11.00
2019-03-24T19:23:42.777Z,11.00
2019-03-24T19:26:17.596Z,11.00
2019-03-24T19:28:47.642Z,11.10
2019-03-24T19:31:18.214Z,11.00
2019-03-24T19:33:48.050Z,10.90
2019-03-24T19:36:18.152Z,10.90
2019-03-24T19:38:47.960Z,11.00
2019-03-24T19:41:17.809Z,10.90
2019-03-24T19:43:47.590Z,10.90
2019-03-24T19:46:18.100Z,10.90
2019-03-24T19:48:47.975Z,10.90
2019-03-24T19:51:18.797Z,10.80
2019-03-24T19:53:56.562Z,10.80
2019-03-24T19:56:26.355Z,10.70
2019-03-24T19:58:56.889Z,10.70
2019-03-24T20:01:27.809Z,10.80
2019-03-24T20:04:03.542Z,10.70
2019-03-24T20:06:33.490Z,10.70
2019-03-24T20:09:03.471Z,10.70
2019-03-24T20:11:34.397Z,10.70
2019-03-24T20:14:04.256Z,10.60
2019-03-24T20:16:34.463Z,10.60
2019-03-24T20:19:04.696Z,10.70
2019-03-24T20:21:34.640Z,10.60
2019-03-24T20:24:04.525Z,10.60
2019-03-24T20:26:34.451Z,10.60
2019-03-24T20:29:05.598Z,10.60
2019-03-24T20:31:34.382Z,10.50
2019-03-24T20:34:05.071Z,10.50
2019-03-24T20:36:36.886Z,10.40
2019-03-24T20:39:09.056Z,10.30
2019-03-24T20:41:40.938Z,10.40
2019-03-24T20:44:11.495Z,10.30
2019-03-24T20:46:40.577Z,10.20
2019-03-24T20:49:12.434Z,10.20
2019-03-24T20:51:45.293Z,10.20
2019-03-24T20:54:18.349Z,10.20
2019-03-24T20:56:48.260Z,10.10
2019-03-24T20:59:18.055Z,9.90
2019-03-24T21:01:47.971Z,9.80
2019-03-24T21:04:20.199Z,9.70
2019-03-24T21:06:47.776Z,9.80
2019-03-24T21:09:18.599Z,9.80
2019-03-24T21:11:49.010Z,9.90
2019-03-24T21:14:18.736Z,9.90
2019-03-24T21:16:48.542Z,9.90
2019-03-24T21:19:19.965Z,9.80
2019-03-24T21:21:50.743Z,9.60
2019-03-24T21:24:21.788Z,9.60
2019-03-24T21:26:52.624Z,9.60
2019-03-24T21:29:22.519Z,9.60
2019-03-24T21:31:52.341Z,9.60
2019-03-24T21:34:22.588Z,9.60
2019-03-24T21:36:54.424Z,9.50
2019-03-24T21:39:24.275Z,9.30
2019-03-24T21:42:05.222Z,9.10
2019-03-24T21:44:35.019Z,8.90
2019-03-24T21:47:04.821Z,8.90
2019-03-24T21:49:34.650Z,8.90
2019-03-24T21:52:06.506Z,8.90
2019-03-24T21:54:37.368Z,8.80
2019-03-24T21:57:07.435Z,8.90
2019-03-24T21:59:37.568Z,8.90
2019-03-24T22:02:07.510Z,9.00
2019-03-24T22:04:37.289Z,9.10
2019-03-24T22:07:07.186Z,9.10
2019-03-24T22:09:38.097Z,9.20
2019-03-24T22:12:11.143Z,9.20
2019-03-24T22:14:40.933Z,9.10
2019-03-24T22:17:11.789Z,9.10
2019-03-24T22:19:41.591Z,9.10
2019-03-24T22:22:11.402Z,9.10
2019-03-24T22:24:43.708Z,9.00
2019-03-24T22:27:20.689Z,8.90
2019-03-24T22:29:51.812Z,8.90
2019-03-24T22:32:21.678Z,8.80
2019-03-24T22:34:51.501Z,8.90
2019-03-24T22:37:22.484Z,8.80
2019-03-24T22:39:52.361Z,8.80
2019-03-24T22:42:23.463Z,8.70
2019-03-24T22:44:53.647Z,8.60
2019-03-24T22:47:24.450Z,8.60
2019-03-24T22:49:54.568Z,8.60
2019-03-24T22:52:24.399Z,8.50
2019-03-24T22:54:54.464Z,8.60
2019-03-24T22:57:24.341Z,8.50
2019-03-24T22:59:54.190Z,8.50
2019-03-24T23:02:24.043Z,8.50
2019-03-24T23:04:54.119Z,8.30
2019-03-24T23:07:24.295Z,8.10
2019-03-24T23:09:54.153Z,7.90
2019-03-24T23:12:24.031Z,7.70
2019-03-24T23:14:53.881Z,7.60
2019-03-24T23:17:26.069Z,7.40
2019-03-24T23:19:56.169Z,7.30
2019-03-24T23:22:26.281Z,7.30
2019-03-24T23:24:56.170Z,7.20
2019-03-24T23:27:26.057Z,7.10
2019-03-24T23:29:56.130Z,7.00
2019-03-24T23:32:25.965Z,6.90
2019-03-24T23:34:56.843Z,7.00
2019-03-24T23:37:26.743Z,7.00
2019-03-24T23:39:56.582Z,7.10
2019-03-24T23:42:26.472Z,7.20
2019-03-24T23:44:56.644Z,7.20
2019-03-24T23:47:26.374Z,7.00
2019-03-24T23:49:56.762Z,6.90
2019-03-24T23:52:27.190Z,6.90
2019-03-24T23:54:57.065Z,7.00
2019-03-24T23:57:26.892Z,7.10
2019-03-24T23:59:56.702Z,7.10
